メインページ
METAR-TAF:

METAR-TAF

空港 :

エルドレット, ケニヤ

緯度: 00-32N, 経度: 035-17E, 海抜: 2120m

現時点の気象観測

当レポートは46分前の23:00(UTC)に作成
南東の風 4kt
気温 13°C
湿度 72%
気圧 1023 hPa
視程10km以上
1,500メートル以下は雲なし、積乱雲なし

METAR: HKEL 242300Z 13004KT CAVOK 13/08 Q1023

時間: 02:46 (23:46 UTC)

予報

当レポートは6時間46分前の17:00(UTC)に作成
予報は24日の 18時(UTC)から 25日の 18時(UTC)まで有効
の風 5kt
視程10km以上
高度2000ftの雲はほとんどない
24日の 20時(UTC)から 24日の 23時(UTC)まで徐々に
の風 kt
視程10km以上
1,500メートル以下は雲なし、積乱雲なし
25日の 00時(UTC)から 25日の 06時(UTC)まで一時的に
視程10km以上
高度1900ftの雲はほとんどない
高度8000ftの雲は散在している
25日の 12時(UTC)から 25日の 18時(UTC)まで一時的に
変向風 2kt
高度2300ftの雲はほとんどない, 積乱雲.
高度2400ftの雲は散在している
激しい雷雨, (弱い

TAF: HKEL 241700Z 2418/2518 09005KT 9999 FEW020 BECMG 2420/2423 00000KT CAVOK TEMPO 2500/2506 9999 FEW019 SCT080 TEMPO 2512/2518 VRB02KT -TS FEW023CB SCT024

4,000以上の空港の気象観測と天気予報(METAR報とTAF報)

利用可能な観測所は地図上に黄色い丸と赤い丸で示す。

丸の上にカーソルを重ねると観測所名を参照できる。

次にクリックすると気象観測と天気予報を参照できる。

マップの切り替え:黒色「×」印の緑ボタンをクリックして拡大、「-」印の緑ボタンをクリックして縮小、緑色の三角印をクリックして隣りの地図に切り替え


METAR-TAF: